KAKQ/AKQ METAR and TAF weather

Enter ICAO airport designator
Station Type Date Time Source
KAKQ METAR 2019/06/24 22:54 UTC NOAA

KAKQ 242254Z AUTO 18004KT 9SM CLR 32/22 A2983 RMK AO2 SLP100 T03170222


Station Type Date Time Source
KAKQ Decoded METAR 2019/06/24 22:54 UTC NOAA

WAKEFIELD MUNICIPAL AIRPOR, VA, United States (KAKQ) 36-59N 077-00W 33M
Jun 24, 2019 - 06:54 PM EDT / 2019.06.24 2254 UTC
Wind: from the S (180 degrees) at 5 MPH (4 KT):0
Visibility: 9 mile(s):0
Sky conditions: clear
Temperature: 89.1 F (31.7 C)
Heat index: 96.1 F (35.6 C):1
Dew Point: 72.0 F (22.2 C)
Relative Humidity: 57%
Pressure (altimeter): 29.83 in. Hg (1010 hPa)
ob: KAKQ 242254Z AUTO 18004KT 9SM CLR 32/22 A2983 RMK AO2 SLP100 T03170222
cycle: 23

Station Type Date Time Source
KAKQ TAF UTC NOAA

Error!

Example: see airport list